Time;durP1;ratioP1;P1;durP2;ratioP2;P2;SDS_P1;SDS_P2;PMS_P1;PMS_P2;Temp;Humidity;BMP_temperature;BMP_pressure;BME280_temperature;BME280_humidity;BME280_pressure;Samples;Min_cycle;Max_cycle;Signal;HPM_P1;HPM_P2
2023/07/12 00:00:30;;;;;;;7.80;3.70;;;;;;;;;;107114;1266;24275;-82
2023/07/12 00:03:17;;;;;;;9.30;3.50;;;;;;;;;;107209;1273;24206;-79
2023/07/12 00:05:46;;;;;;;7.90;3.80;;;;;;;;;;106983;1273;22654;-83
2023/07/12 00:08:20;;;;;;;7.30;3.40;;;;;;;;;;107250;1273;22523;-85
2023/07/12 00:10:47;;;;;;;7.00;3.80;;;;;;;;;;107193;1273;22548;-85
2023/07/12 00:13:14;;;;;;;9.40;3.40;;;;;;;;;;107129;1273;22524;-78
2023/07/12 00:15:47;;;;;;;8.10;3.50;;;;;;;;;;107117;1273;22482;-80
2023/07/12 00:18:19;;;;;;;7.50;3.10;;;;;;;;;;107217;1273;24221;-84
2023/07/12 00:20:46;;;;;;;9.40;3.10;;;;;;;;;;107125;1256;22641;-85
2023/07/12 00:23:18;;;;;;;7.10;3.20;;;;;;;;;;107203;1273;22521;-82
2023/07/12 00:25:46;;;;;;;7.80;3.30;;;;;;;;;;107236;1273;22645;-83
2023/07/12 00:28:20;;;;;;;8.50;3.30;;;;;;;;;;107272;1273;24216;-83
2023/07/12 00:31:07;;;;;;;8.60;3.60;;;;;;;;;;107272;1273;24345;-81
2023/07/12 00:33:34;;;;;;;7.30;3.20;;;;;;;;;;107166;1273;23864;-83
2023/07/12 00:36:25;;;;;;;8.70;3.30;;;;;;;;;;107219;1273;24189;-84
2023/07/12 00:38:52;;;;;;;7.30;3.10;;;;;;;;;;107148;1273;22520;-83
2023/07/12 00:41:19;;;;;;;9.60;3.50;;;;;;;;;;107223;1264;22480;-78
2023/07/12 00:43:50;;;;;;;9.30;3.60;;;;;;;;;;107269;1273;23281;-82
2023/07/12 00:46:31;;;;;;;9.00;3.70;;;;;;;;;;107191;1273;22534;-80
2023/07/12 00:48:58;;;;;;;7.20;3.30;;;;;;;;;;106980;1273;22540;-78
2023/07/12 00:51:43;;;;;;;10.40;3.50;;;;;;;;;;107219;1264;22730;-83
2023/07/12 00:54:31;;;;;;;9.90;3.40;;;;;;;;;;107175;1273;25255;-80
2023/07/12 00:57:03;;;;;;;9.70;3.40;;;;;;;;;;107115;1273;25361;-79
2023/07/12 00:59:30;;;;;;;8.50;3.30;;;;;;;;;;107118;1273;25225;-80
2023/07/12 01:01:59;;;;;;;7.40;3.20;;;;;;;;;;107148;1267;25306;-78
2023/07/12 01:04:52;;;;;;;8.20;3.70;;;;;;;;;;107177;1273;22521;-83
2023/07/12 01:07:38;;;;;;;;;;;;;;;;;;;;;
2023/07/12 01:10:09;;;;;;;8.10;3.40;;;;;;;;;;107225;1251;24215;-81
2023/07/12 01:12:37;;;;;;;9.50;3.80;;;;;;;;;;106983;1273;22605;-81
2023/07/12 01:15:23;;;;;;;11.60;3.50;;;;;;;;;;107097;1273;24243;-84
2023/07/12 01:17:50;;;;;;;8.80;3.90;;;;;;;;;;107222;1270;22983;-80
2023/07/12 01:20:37;;;;;;;8.60;3.60;;;;;;;;;;106761;1277;22524;-83
2023/07/12 01:23:30;;;;;;;10.40;3.80;;;;;;;;;;106695;1278;24243;-83
2023/07/12 01:26:20;;;;;;;8.10;2.90;;;;;;;;;;106819;1278;22967;-82
2023/07/12 01:28:49;;;;;;;8.20;3.80;;;;;;;;;;106759;1278;22644;-81
2023/07/12 01:31:19;;;;;;;7.80;3.30;;;;;;;;;;106676;1264;22624;-82
2023/07/12 01:33:49;;;;;;;9.30;3.60;;;;;;;;;;106709;1279;25419;-82
2023/07/12 01:36:36;;;;;;;8.80;3.50;;;;;;;;;;106774;1270;24247;-82
2023/07/12 01:39:03;;;;;;;8.60;3.50;;;;;;;;;;106788;1279;22523;-83
2023/07/12 01:41:36;;;;;;;7.00;3.40;;;;;;;;;;106576;1263;22694;-82
2023/07/12 01:44:04;;;;;;;7.80;3.50;;;;;;;;;;106907;1277;24459;-82
2023/07/12 01:46:35;;;;;;;7.20;3.40;;;;;;;;;;106805;1278;24344;-82
2023/07/12 01:49:04;;;;;;;8.00;3.50;;;;;;;;;;106717;1278;23209;-84
2023/07/12 01:51:32;;;;;;;8.50;3.20;;;;;;;;;;106773;1263;23375;-80
2023/07/12 01:53:59;;;;;;;8.20;3.50;;;;;;;;;;106905;1279;24077;-79
2023/07/12 01:56:26;;;;;;;9.60;3.60;;;;;;;;;;106505;1279;22616;-84
2023/07/12 01:58:55;;;;;;;9.90;3.90;;;;;;;;;;106891;1274;22691;-82
2023/07/12 02:01:33;;;;;;;8.40;3.90;;;;;;;;;;107117;1256;22609;-81
2023/07/12 02:04:05;;;;;;;9.20;3.90;;;;;;;;;;107215;1273;23133;-82
2023/07/12 02:06:35;;;;;;;8.60;3.70;;;;;;;;;;107132;1273;22986;-80
2023/07/12 02:09:02;;;;;;;8.70;4.10;;;;;;;;;;107152;1273;23856;-81
2023/07/12 02:11:29;;;;;;;9.50;4.40;;;;;;;;;;106971;1273;24225;-81
2023/07/12 02:13:58;;;;;;;10.20;4.10;;;;;;;;;;107189;1273;22530;-83
2023/07/12 02:16:27;;;;;;;9.00;4.20;;;;;;;;;;107136;1270;22525;-78
2023/07/12 02:18:54;;;;;;;13.20;4.40;;;;;;;;;;107244;1269;22532;-83
2023/07/12 02:21:21;;;;;;;8.70;4.10;;;;;;;;;;106975;1273;22533;-79
2023/07/12 02:23:48;;;;;;;8.40;4.20;;;;;;;;;;107037;1258;22614;-78
2023/07/12 02:26:15;;;;;;;8.20;4.00;;;;;;;;;;107270;1250;24230;-81
2023/07/12 02:28:42;;;;;;;10.50;4.40;;;;;;;;;;107103;1273;25448;-79
2023/07/12 02:31:20;;;;;;;10.50;4.40;;;;;;;;;;107033;1273;22612;-83
2023/07/12 02:33:48;;;;;;;10.40;4.30;;;;;;;;;;107243;1251;23897;-83
2023/07/12 02:36:15;;;;;;;10.30;4.30;;;;;;;;;;107204;1273;22522;-82
2023/07/12 02:38:42;;;;;;;9.30;4.40;;;;;;;;;;106939;1273;22619;-81
2023/07/12 02:41:09;;;;;;;9.80;4.10;;;;;;;;;;107149;1273;22527;-79
2023/07/12 02:43:36;;;;;;;9.30;4.00;;;;;;;;;;107189;1263;22529;-78
2023/07/12 02:46:03;;;;;;;9.40;4.30;;;;;;;;;;107292;1273;25266;-82
2023/07/12 02:48:29;;;;;;;11.40;4.60;;;;;;;;;;107178;1273;25367;-78
2023/07/12 02:50:56;;;;;;;9.50;4.30;;;;;;;;;;107274;1273;22518;-84
2023/07/12 02:53:23;;;;;;;12.40;4.70;;;;;;;;;;107056;1256;24257;-82
2023/07/12 02:55:55;;;;;;;9.10;4.30;;;;;;;;;;107175;1273;24260;-78
2023/07/12 02:58:22;;;;;;;8.90;4.40;;;;;;;;;;107241;1273;22539;-85
2023/07/12 03:00:49;;;;;;;9.30;4.60;;;;;;;;;;107077;1274;25226;-78
2023/07/12 03:03:18;;;;;;;11.60;4.70;;;;;;;;;;106970;1272;25220;-81
2023/07/12 03:05:44;;;;;;;8.90;4.10;;;;;;;;;;107027;1253;24321;-82
2023/07/12 03:08:13;;;;;;;8.80;4.30;;;;;;;;;;107137;1275;24247;-82
2023/07/12 03:10:40;;;;;;;10.60;4.80;;;;;;;;;;107142;1275;22525;-78
2023/07/12 03:13:09;;;;;;;9.60;4.20;;;;;;;;;;106993;1256;21715;-84
2023/07/12 03:15:39;;;;;;;11.30;4.70;;;;;;;;;;107093;1274;22521;-84
2023/07/12 03:18:06;;;;;;;10.70;4.80;;;;;;;;;;107154;1274;24057;-84
2023/07/12 03:20:33;;;;;;;10.20;5.00;;;;;;;;;;107195;1274;22567;-82
2023/07/12 03:23:00;;;;;;;10.60;5.10;;;;;;;;;;107137;1275;22533;-79
2023/07/12 03:26:05;;;;;;;10.00;4.60;;;;;;;;;;107133;1275;24202;-83
2023/07/12 03:28:31;;;;;;;10.60;5.10;;;;;;;;;;107121;1275;22598;-78
2023/07/12 03:31:03;;;;;;;9.70;4.80;;;;;;;;;;106941;1275;22620;-83
2023/07/12 03:33:30;;;;;;;11.70;4.90;;;;;;;;;;107001;1258;22553;-77
2023/07/12 03:35:57;;;;;;;10.30;5.00;;;;;;;;;;107104;1274;22539;-82
2023/07/12 03:38:36;;;;;;;9.70;4.70;;;;;;;;;;106926;1275;25488;-82
2023/07/12 03:41:04;;;;;;;12.80;4.80;;;;;;;;;;107082;1274;24218;-81
2023/07/12 03:43:32;;;;;;;11.40;5.20;;;;;;;;;;107021;1257;25224;-78
2023/07/12 03:45:59;;;;;;;9.90;5.20;;;;;;;;;;106965;1275;25223;-80
2023/07/12 03:48:26;;;;;;;10.70;5.10;;;;;;;;;;107126;1254;22527;-85
2023/07/12 03:50:55;;;;;;;12.80;5.00;;;;;;;;;;106947;1275;24195;-80
2023/07/12 03:53:25;;;;;;;11.20;5.90;;;;;;;;;;107136;1251;22528;-81
2023/07/12 03:55:53;;;;;;;10.90;5.40;;;;;;;;;;107229;1274;25398;-78
2023/07/12 03:58:24;;;;;;;11.10;6.10;;;;;;;;;;107173;1274;22525;-85
2023/07/12 04:00:51;;;;;;;12.20;6.90;;;;;;;;;;107040;1274;26171;-79
2023/07/12 04:03:18;;;;;;;13.30;6.50;;;;;;;;;;107147;1274;22464;-85
2023/07/12 04:05:48;;;;;;;11.10;5.70;;;;;;;;;;106925;1257;22521;-82
2023/07/12 04:08:15;;;;;;;13.10;6.50;;;;;;;;;;107187;1274;24299;-81
2023/07/12 04:10:42;;;;;;;17.70;7.00;;;;;;;;;;107019;1274;22517;-81
2023/07/12 04:13:09;;;;;;;25.00;7.80;;;;;;;;;;107160;1274;23905;-78
2023/07/12 04:15:39;;;;;;;19.00;7.30;;;;;;;;;;106878;1274;22523;-79
2023/07/12 04:18:05;;;;;;;14.50;7.40;;;;;;;;;;106925;1271;24260;-77
2023/07/12 04:20:36;;;;;;;15.10;6.60;;;;;;;;;;107101;1274;22527;-78
2023/07/12 04:23:08;;;;;;;11.50;6.90;;;;;;;;;;107420;1274;25282;-80
2023/07/12 04:25:35;;;;;;;25.20;8.50;;;;;;;;;;107164;1251;24485;-77
2023/07/12 04:28:02;;;;;;;19.60;7.30;;;;;;;;;;106917;1274;22647;-79
2023/07/12 04:30:28;;;;;;;15.00;7.30;;;;;;;;;;107187;1274;25315;-82
2023/07/12 04:32:55;;;;;;;12.50;7.50;;;;;;;;;;107174;1274;25229;-83
2023/07/12 04:35:22;;;;;;;13.70;7.70;;;;;;;;;;106998;1257;22599;-81
2023/07/12 04:37:50;;;;;;;14.40;7.80;;;;;;;;;;107090;1274;22527;-84
2023/07/12 04:40:17;;;;;;;17.10;7.10;;;;;;;;;;107104;1274;25332;-82
2023/07/12 04:42:49;;;;;;;15.70;6.90;;;;;;;;;;107099;1274;22523;-82
2023/07/12 04:45:16;;;;;;;15.40;7.30;;;;;;;;;;107129;1257;22546;-86
2023/07/12 04:47:44;;;;;;;16.40;7.50;;;;;;;;;;107107;1274;22613;-81
2023/07/12 04:50:18;;;;;;;14.50;7.00;;;;;;;;;;107161;1274;22662;-80
2023/07/12 04:52:47;;;;;;;16.00;7.30;;;;;;;;;;107146;1274;22480;-83
2023/07/12 04:55:19;;;;;;;17.00;7.10;;;;;;;;;;107093;1255;24247;-80
2023/07/12 04:57:46;;;;;;;23.30;7.70;;;;;;;;;;107138;1274;23866;-82
2023/07/12 05:00:14;;;;;;;13.40;6.50;;;;;;;;;;106978;1274;24466;-79
2023/07/12 05:02:41;;;;;;;19.70;7.10;;;;;;;;;;106933;1274;25336;-78
2023/07/12 05:05:13;;;;;;;16.00;7.00;;;;;;;;;;107007;1274;22526;-78
2023/07/12 05:07:49;;;;;;;19.40;6.90;;;;;;;;;;107174;1274;22544;-85
2023/07/12 05:10:16;;;;;;;12.70;6.40;;;;;;;;;;107188;1271;24193;-81
2023/07/12 05:12:53;;;;;;;18.20;9.00;;;;;;;;;;107141;1274;24202;-80
2023/07/12 05:15:20;;;;;;;19.90;10.70;;;;;;;;;;107225;1252;24233;-83
2023/07/12 05:17:54;;;;;;;15.40;7.10;;;;;;;;;;107194;1274;24209;-80
2023/07/12 05:20:21;;;;;;;15.80;6.40;;;;;;;;;;107223;1269;25299;-83
2023/07/12 05:22:48;;;;;;;12.50;6.40;;;;;;;;;;107162;1274;22647;-83
2023/07/12 05:25:18;;;;;;;14.00;6.30;;;;;;;;;;107164;1251;22514;-85
2023/07/12 05:27:44;;;;;;;14.60;7.00;;;;;;;;;;106931;1274;22520;-82
2023/07/12 05:30:11;;;;;;;15.60;7.40;;;;;;;;;;107184;1274;22520;-83
2023/07/12 05:32:39;;;;;;;18.50;7.10;;;;;;;;;;106903;1274;22529;-83
2023/07/12 05:35:06;;;;;;;14.20;6.50;;;;;;;;;;107105;1274;24304;-82
2023/07/12 05:37:33;;;;;;;17.30;7.10;;;;;;;;;;106879;1259;24368;-85
2023/07/12 05:40:00;;;;;;;13.40;6.60;;;;;;;;;;106944;1275;25290;-79
2023/07/12 05:42:27;;;;;;;13.50;6.40;;;;;;;;;;106896;1275;22502;-84
2023/07/12 05:44:56;;;;;;;11.70;6.80;;;;;;;;;;107202;1275;24237;-80
2023/07/12 05:47:23;;;;;;;16.00;7.50;;;;;;;;;;107076;1258;22520;-79
2023/07/12 05:49:49;;;;;;;18.00;6.80;;;;;;;;;;107160;1274;24325;-83
2023/07/12 05:52:27;;;;;;;14.30;7.00;;;;;;;;;;106924;1274;24288;-84
2023/07/12 05:54:54;;;;;;;19.40;7.60;;;;;;;;;;107192;1274;22566;-81
2023/07/12 05:57:21;;;;;;;20.50;7.30;;;;;;;;;;106953;1258;26499;-78
2023/07/12 05:59:48;;;;;;;15.30;6.50;;;;;;;;;;106934;1275;24211;-78
2023/07/12 06:02:15;;;;;;;16.60;6.30;;;;;;;;;;107081;1275;22515;-83
2023/07/12 06:04:42;;;;;;;19.20;6.70;;;;;;;;;;107044;1275;22520;-82
2023/07/12 06:07:08;;;;;;;25.50;7.00;;;;;;;;;;106916;1257;25306;-82
2023/07/12 06:09:38;;;;;;;26.20;6.90;;;;;;;;;;107132;1274;22520;-82
2023/07/12 06:12:05;;;;;;;26.90;7.70;;;;;;;;;;107110;1251;22537;-78
2023/07/12 06:14:32;;;;;;;26.90;6.80;;;;;;;;;;107072;1274;22532;-79
2023/07/12 06:16:58;;;;;;;19.70;7.60;;;;;;;;;;106995;1274;22541;-83
2023/07/12 06:19:25;;;;;;;20.50;6.20;;;;;;;;;;106952;1274;24246;-80
2023/07/12 06:21:52;;;;;;;16.80;7.30;;;;;;;;;;107187;1274;25318;-79
2023/07/12 06:24:34;;;;;;;14.60;6.80;;;;;;;;;;107252;1274;22650;-84
2023/07/12 06:27:00;;;;;;;17.50;7.00;;;;;;;;;;107162;1255;25220;-80
2023/07/12 06:29:28;;;;;;;19.20;7.10;;;;;;;;;;107200;1274;22525;-86
2023/07/12 06:31:55;;;;;;;13.40;6.60;;;;;;;;;;107182;1274;22497;-83
2023/07/12 06:34:22;;;;;;;17.70;6.90;;;;;;;;;;107178;1274;25233;-85
2023/07/12 06:36:49;;;;;;;16.70;6.70;;;;;;;;;;107080;1253;25356;-81
2023/07/12 06:39:18;;;;;;;26.40;6.70;;;;;;;;;;107114;1261;24212;-82
2023/07/12 06:41:49;;;;;;;24.90;7.00;;;;;;;;;;107242;1275;25360;-79
2023/07/12 06:44:20;;;;;;;26.40;7.20;;;;;;;;;;106995;1269;22534;-83
2023/07/12 06:46:47;;;;;;;23.00;7.20;;;;;;;;;;106947;1267;22527;-82
2023/07/12 06:49:15;;;;;;;22.00;6.60;;;;;;;;;;107027;1274;26461;-83
2023/07/12 06:51:46;;;;;;;24.70;6.80;;;;;;;;;;107218;1266;24215;-82
2023/07/12 06:54:14;;;;;;;25.30;6.80;;;;;;;;;;107224;1274;24259;-83
2023/07/12 06:56:41;;;;;;;18.60;6.80;;;;;;;;;;107149;1274;22476;-81
2023/07/12 06:59:08;;;;;;;23.90;7.00;;;;;;;;;;107007;1266;22532;-85
2023/07/12 07:01:35;;;;;;;21.20;6.30;;;;;;;;;;107215;1273;22516;-84
2023/07/12 07:04:03;;;;;;;23.90;6.60;;;;;;;;;;107193;1273;22518;-82
2023/07/12 07:06:30;;;;;;;28.60;6.80;;;;;;;;;;107166;1273;22528;-86
2023/07/12 07:09:00;;;;;;;27.00;7.40;;;;;;;;;;107201;1260;22516;-85
2023/07/12 07:11:27;;;;;;;24.80;7.10;;;;;;;;;;107164;1273;24295;-85
2023/07/12 07:13:54;;;;;;;21.60;6.60;;;;;;;;;;107218;1273;24326;-79
2023/07/12 07:16:24;;;;;;;20.00;7.10;;;;;;;;;;107018;1273;25278;-82
2023/07/12 07:18:52;;;;;;;15.10;6.60;;;;;;;;;;107198;1253;24347;-79
2023/07/12 07:21:19;;;;;;;15.90;6.70;;;;;;;;;;107237;1269;24184;-84
2023/07/12 07:23:51;;;;;;;19.60;6.50;;;;;;;;;;107263;1266;22739;-84
2023/07/12 07:26:18;;;;;;;16.40;6.30;;;;;;;;;;107187;1269;24196;-82
2023/07/12 07:28:48;;;;;;;18.60;6.90;;;;;;;;;;107302;1269;22527;-84
2023/07/12 07:31:15;;;;;;;17.80;7.40;;;;;;;;;;107234;1266;25230;-80
2023/07/12 07:33:42;;;;;;;13.40;7.20;;;;;;;;;;106972;1271;23902;-80
2023/07/12 07:36:15;;;;;;;16.30;6.60;;;;;;;;;;107210;1266;22579;-86
2023/07/12 07:38:41;;;;;;;15.80;6.40;;;;;;;;;;107130;1257;22612;-79
2023/07/12 07:41:17;;;;;;;13.70;6.70;;;;;;;;;;107244;1269;26497;-84
2023/07/12 07:43:44;;;;;;;15.40;6.90;;;;;;;;;;107267;1250;24179;-86
2023/07/12 07:46:13;;;;;;;14.00;6.40;;;;;;;;;;107329;1266;22547;-89
2023/07/12 07:48:40;;;;;;;14.20;7.30;;;;;;;;;;107409;1256;22537;-84
2023/07/12 07:51:09;;;;;;;11.80;6.50;;;;;;;;;;107321;1269;22980;-83
2023/07/12 07:53:36;;;;;;;12.90;6.70;;;;;;;;;;107286;1266;22544;-80
2023/07/12 07:56:03;;;;;;;11.80;6.20;;;;;;;;;;107249;1272;22579;-85
2023/07/12 07:58:40;;;;;;;13.60;6.90;;;;;;;;;;107104;1256;22517;-84
2023/07/12 08:01:06;;;;;;;17.90;6.90;;;;;;;;;;107219;1267;22517;-86
2023/07/12 08:03:36;;;;;;;11.30;6.30;;;;;;;;;;107055;1265;22556;-83
2023/07/12 08:06:05;;;;;;;12.60;7.00;;;;;;;;;;107203;1270;22539;-81
2023/07/12 08:08:34;;;;;;;17.70;6.70;;;;;;;;;;107199;1250;25326;-80
2023/07/12 08:11:05;;;;;;;12.10;6.70;;;;;;;;;;107148;1266;25281;-82
2023/07/12 08:13:32;;;;;;;13.00;6.90;;;;;;;;;;107236;1253;22576;-80
2023/07/12 08:16:01;;;;;;;12.50;6.70;;;;;;;;;;107117;1269;22516;-82
2023/07/12 08:18:31;;;;;;;13.50;7.40;;;;;;;;;;107245;1269;22514;-79
2023/07/12 08:21:03;;;;;;;11.50;7.10;;;;;;;;;;107256;1256;25210;-81
2023/07/12 08:23:33;;;;;;;13.30;6.70;;;;;;;;;;107147;1266;22535;-79
2023/07/12 08:26:07;;;;;;;14.90;6.90;;;;;;;;;;106945;1272;23121;-80
2023/07/12 08:28:41;;;;;;;12.80;7.10;;;;;;;;;;106940;1269;22520;-81
2023/07/12 08:31:16;;;;;;;17.40;7.30;;;;;;;;;;106926;1256;22525;-83
2023/07/12 08:33:46;;;;;;;18.40;8.40;;;;;;;;;;107241;1273;22762;-85
2023/07/12 08:36:13;;;;;;;18.20;7.90;;;;;;;;;;107073;1266;22479;-81
2023/07/12 08:38:40;;;;;;;18.70;7.80;;;;;;;;;;107227;1268;22521;-87
2023/07/12 08:41:13;;;;;;;22.60;8.80;;;;;;;;;;107253;1255;22527;-84
2023/07/12 08:43:40;;;;;;;25.40;8.50;;;;;;;;;;107124;1266;22549;-81
2023/07/12 08:46:25;;;;;;;18.80;8.40;;;;;;;;;;107001;1267;22634;-81
2023/07/12 08:49:08;;;;;;;17.30;7.90;;;;;;;;;;107071;1272;24206;-79
2023/07/12 08:51:43;;;;;;;28.50;8.30;;;;;;;;;;107227;1250;22526;-80
2023/07/12 08:54:21;;;;;;;18.40;8.00;;;;;;;;;;107061;1265;25639;-81
2023/07/12 08:56:49;;;;;;;17.40;7.50;;;;;;;;;;107235;1265;24183;-85
2023/07/12 08:59:22;;;;;;;17.40;8.30;;;;;;;;;;107328;1266;22535;-80
2023/07/12 09:01:51;;;;;;;17.50;7.80;;;;;;;;;;106979;1268;22511;-85
2023/07/12 09:04:59;;;;;;;16.80;7.30;;;;;;;;;;107007;1267;24200;-82
2023/07/12 09:07:29;;;;;;;22.20;8.50;;;;;;;;;;107122;1269;24225;-84
2023/07/12 09:09:59;;;;;;;15.50;7.60;;;;;;;;;;107057;1254;23206;-79
2023/07/12 09:12:32;;;;;;;17.20;7.50;;;;;;;;;;106984;1267;25402;-78
2023/07/12 09:15:11;;;;;;;;;;;;;;;;;;;;;
2023/07/12 09:18:04;;;;;;;15.70;7.10;;;;;;;;;;107182;1269;22752;-83
2023/07/12 09:20:34;;;;;;;17.30;6.80;;;;;;;;;;106995;1258;25475;-80
2023/07/12 09:23:05;;;;;;;11.70;7.00;;;;;;;;;;107030;1268;22517;-81
2023/07/12 09:25:36;;;;;;;13.80;7.20;;;;;;;;;;107199;1263;24243;-80
2023/07/12 09:28:03;;;;;;;19.50;7.60;;;;;;;;;;107030;1275;24307;-81
2023/07/12 09:30:35;;;;;;;12.70;5.70;;;;;;;;;;107059;1256;22527;-84
2023/07/12 09:33:23;;;;;;;14.10;7.20;;;;;;;;;;107209;1275;24366;-81
2023/07/12 09:35:53;;;;;;;23.10;5.90;;;;;;;;;;107152;1275;24046;-82
2023/07/12 09:38:23;;;;;;;14.30;5.60;;;;;;;;;;107212;1269;25226;-82
2023/07/12 09:41:02;;;;;;;11.70;4.70;;;;;;;;;;107246;1256;22529;-82
2023/07/12 09:43:36;;;;;;;9.90;4.80;;;;;;;;;;107194;1275;24187;-86
2023/07/12 09:46:21;;;;;;;8.50;4.60;;;;;;;;;;107025;1275;25278;-84
2023/07/12 09:49:17;;;;;;;10.70;5.00;;;;;;;;;;107145;1275;22649;-84
2023/07/12 09:51:58;;;;;;;9.20;3.70;;;;;;;;;;107034;1275;25416;-87
2023/07/12 09:54:47;;;;;;;9.70;3.60;;;;;;;;;;107095;1276;23876;-83
2023/07/12 09:57:34;;;;;;;8.00;3.20;;;;;;;;;;107075;1272;24261;-82
2023/07/12 10:00:24;;;;;;;20.50;3.70;;;;;;;;;;107045;1275;22519;-86
2023/07/12 10:03:13;;;;;;;10.40;3.20;;;;;;;;;;107152;1260;25113;-83
2023/07/12 10:05:58;;;;;;;7.50;3.30;;;;;;;;;;106986;1274;24186;-80
2023/07/12 10:08:53;;;;;;;8.90;3.20;;;;;;;;;;107054;1274;22561;-80
2023/07/12 10:11:35;;;;;;;8.90;3.30;;;;;;;;;;107090;1255;22587;-83
2023/07/12 10:14:06;;;;;;;8.10;2.70;;;;;;;;;;110420;1275;22117;-79
2023/07/12 10:16:39;;;;;;;9.40;3.80;;;;;;;;;;110557;1275;22317;-79
2023/07/12 10:19:14;;;;;;;11.10;3.30;;;;;;;;;;110402;1272;22922;-79
2023/07/12 10:21:44;;;;;;;9.50;3.10;;;;;;;;;;110513;1257;22116;-79
2023/07/12 10:24:13;;;;;;;15.60;3.30;;;;;;;;;;110619;1274;22542;-78
2023/07/12 10:26:41;;;;;;;10.70;2.90;;;;;;;;;;110613;1274;22856;-79
2023/07/12 10:29:11;;;;;;;15.40;4.10;;;;;;;;;;110535;1274;22843;-79
2023/07/12 10:31:42;;;;;;;12.70;3.30;;;;;;;;;;110630;1253;22129;-79
2023/07/12 10:34:31;;;;;;;8.10;3.80;;;;;;;;;;110599;1272;22108;-79
2023/07/12 10:37:01;;;;;;;11.30;3.50;;;;;;;;;;110578;1275;22170;-79
2023/07/12 10:39:28;;;;;;;10.90;3.80;;;;;;;;;;110463;1275;22601;-79
2023/07/12 10:41:58;;;;;;;8.50;3.10;;;;;;;;;;110578;1257;22803;-79
2023/07/12 10:44:29;;;;;;;10.30;3.40;;;;;;;;;;110640;1263;22752;-78
2023/07/12 10:46:58;;;;;;;8.60;3.20;;;;;;;;;;110573;1274;22341;-79
2023/07/12 10:49:44;;;;;;;10.20;3.50;;;;;;;;;;110598;1267;23060;-78
2023/07/12 10:52:11;;;;;;;12.10;3.60;;;;;;;;;;110627;1254;22258;-79
2023/07/12 10:54:42;;;;;;;7.50;3.40;;;;;;;;;;110686;1273;22117;-79
2023/07/12 10:57:18;;;;;;;9.50;3.70;;;;;;;;;;110643;1273;22074;-78
2023/07/12 10:59:46;;;;;;;7.00;3.30;;;;;;;;;;110680;1273;22811;-79
2023/07/12 11:02:26;;;;;;;9.80;3.30;;;;;;;;;;110622;1251;22121;-79
2023/07/12 11:04:54;;;;;;;9.40;3.20;;;;;;;;;;110659;1273;22103;-79
2023/07/12 11:07:21;;;;;;;11.40;3.30;;;;;;;;;;110597;1273;22115;-78
2023/07/12 11:09:51;;;;;;;7.60;3.70;;;;;;;;;;110656;1273;22094;-80
2023/07/12 11:12:31;;;;;;;9.20;3.90;;;;;;;;;;110663;1251;22160;-79
2023/07/12 11:15:04;;;;;;;10.60;3.80;;;;;;;;;;110638;1273;22097;-80
2023/07/12 11:17:48;;;;;;;8.90;3.40;;;;;;;;;;110628;1273;22142;-79
2023/07/12 11:20:23;;;;;;;10.10;3.60;;;;;;;;;;110629;1273;22086;-79
2023/07/12 11:22:52;;;;;;;6.30;3.40;;;;;;;;;;110654;1255;22140;-80
2023/07/12 11:25:30;;;;;;;8.10;3.80;;;;;;;;;;110611;1273;22189;-79
2023/07/12 11:27:59;;;;;;;6.30;3.40;;;;;;;;;;110640;1273;22134;-80
2023/07/12 11:30:29;;;;;;;7.60;3.30;;;;;;;;;;110706;1273;22130;-80
2023/07/12 11:33:02;;;;;;;11.30;3.70;;;;;;;;;;110693;1257;22082;-81
2023/07/12 11:35:36;;;;;;;7.20;3.20;;;;;;;;;;110703;1273;22200;-79
2023/07/12 11:38:03;;;;;;;5.90;2.90;;;;;;;;;;110715;1267;22865;-81
2023/07/12 11:40:35;;;;;;;9.00;3.50;;;;;;;;;;110618;1273;22203;-80
2023/07/12 11:43:21;;;;;;;11.40;3.60;;;;;;;;;;110692;1251;22153;-81
2023/07/12 11:45:51;;;;;;;8.40;3.50;;;;;;;;;;110715;1273;22110;-81
2023/07/12 11:48:19;;;;;;;8.70;3.60;;;;;;;;;;110633;1273;22858;-80
2023/07/12 11:50:49;;;;;;;8.30;3.40;;;;;;;;;;110727;1273;22106;-80
2023/07/12 11:53:19;;;;;;;11.20;3.40;;;;;;;;;;110740;1250;22125;-80
2023/07/12 11:55:50;;;;;;;20.00;4.00;;;;;;;;;;110662;1273;22862;-80
2023/07/12 11:58:22;;;;;;;10.00;3.00;;;;;;;;;;110697;1273;22951;-80
2023/07/12 12:00:50;;;;;;;6.60;3.60;;;;;;;;;;110674;1273;22979;-82
2023/07/12 12:03:17;;;;;;;9.10;3.10;;;;;;;;;;110629;1251;22997;-82
2023/07/12 12:05:44;;;;;;;6.40;3.00;;;;;;;;;;110587;1274;22080;-81
2023/07/12 12:08:17;;;;;;;8.00;3.20;;;;;;;;;;110631;1274;22097;-81
2023/07/12 12:10:45;;;;;;;8.80;2.90;;;;;;;;;;110661;1274;22747;-81
2023/07/12 12:13:26;;;;;;;9.10;3.50;;;;;;;;;;110602;1274;22434;-81
2023/07/12 12:16:17;;;;;;;7.80;3.10;;;;;;;;;;110699;1258;22215;-81
2023/07/12 12:18:51;;;;;;;8.00;2.70;;;;;;;;;;110627;1273;22106;-81
2023/07/12 12:21:18;;;;;;;6.90;2.90;;;;;;;;;;110781;1273;22097;-78
2023/07/12 12:23:51;;;;;;;6.30;2.70;;;;;;;;;;110718;1251;22347;-81
2023/07/12 12:26:19;;;;;;;8.40;2.80;;;;;;;;;;110605;1274;22568;-80
2023/07/12 12:28:53;;;;;;;7.20;2.80;;;;;;;;;;110666;1274;22061;-81
2023/07/12 12:31:21;;;;;;;8.00;3.10;;;;;;;;;;110647;1272;22441;-81
2023/07/12 12:33:49;;;;;;;8.70;2.80;;;;;;;;;;110602;1274;22124;-82
2023/07/12 12:36:19;;;;;;;9.90;2.70;;;;;;;;;;110692;1256;22307;-80
2023/07/12 12:38:54;;;;;;;7.50;3.10;;;;;;;;;;110698;1273;22120;-81
2023/07/12 12:41:21;;;;;;;7.80;2.90;;;;;;;;;;110678;1273;22027;-81
2023/07/12 12:43:57;;;;;;;13.70;3.40;;;;;;;;;;110661;1273;23088;-82
2023/07/12 12:46:28;;;;;;;14.90;2.70;;;;;;;;;;110707;1256;22914;-80
2023/07/12 12:48:55;;;;;;;5.60;2.30;;;;;;;;;;110616;1274;22940;-79
2023/07/12 12:51:28;;;;;;;11.60;3.20;;;;;;;;;;110598;1274;22102;-81
2023/07/12 12:53:57;;;;;;;15.40;3.60;;;;;;;;;;110589;1275;22098;-81
2023/07/12 12:56:24;;;;;;;12.40;3.10;;;;;;;;;;110939;1256;22163;-80
2023/07/12 12:59:00;;;;;;;6.40;2.80;;;;;;;;;;110654;1273;22073;-80
2023/07/12 13:01:27;;;;;;;6.50;2.40;;;;;;;;;;110782;1273;22807;-80
2023/07/12 13:03:54;;;;;;;5.90;2.80;;;;;;;;;;110692;1273;22103;-80
2023/07/12 13:06:24;;;;;;;5.90;3.00;;;;;;;;;;110790;1254;22113;-80
2023/07/12 13:08:51;;;;;;;8.30;3.00;;;;;;;;;;110676;1273;22098;-79
2023/07/12 13:11:18;;;;;;;8.90;2.60;;;;;;;;;;110678;1274;22117;-80
2023/07/12 13:13:45;;;;;;;5.70;2.30;;;;;;;;;;110715;1274;22108;-77
2023/07/12 13:16:16;;;;;;;11.00;3.40;;;;;;;;;;111164;1253;22745;-80
2023/07/12 13:18:43;;;;;;;7.50;2.90;;;;;;;;;;110653;1273;22262;-79
2023/07/12 13:21:17;;;;;;;7.70;2.80;;;;;;;;;;110680;1273;22126;-78
2023/07/12 13:23:45;;;;;;;7.60;2.70;;;;;;;;;;110678;1273;22119;-79
2023/07/12 13:26:16;;;;;;;5.70;2.60;;;;;;;;;;111059;1255;22143;-78
2023/07/12 13:28:42;;;;;;;10.60;3.30;;;;;;;;;;110707;1274;22248;-79
2023/07/12 13:31:11;;;;;;;9.90;2.70;;;;;;;;;;110660;1274;22148;-79
2023/07/12 13:33:38;;;;;;;8.70;3.10;;;;;;;;;;110666;1274;22126;-79
2023/07/12 13:36:05;;;;;;;9.10;2.90;;;;;;;;;;110642;1254;22920;-80
2023/07/12 13:38:32;;;;;;;11.40;3.30;;;;;;;;;;110648;1273;22189;-79
2023/07/12 13:40:59;;;;;;;8.40;3.10;;;;;;;;;;110601;1273;22070;-79
2023/07/12 13:43:26;;;;;;;7.00;2.90;;;;;;;;;;110655;1269;22144;-79
2023/07/12 13:45:53;;;;;;;8.40;2.80;;;;;;;;;;110703;1256;22198;-81
2023/07/12 13:48:23;;;;;;;7.70;3.00;;;;;;;;;;110507;1273;22135;-80
2023/07/12 13:50:50;;;;;;;9.00;3.20;;;;;;;;;;110685;1273;22088;-79
2023/07/12 13:53:17;;;;;;;8.10;3.40;;;;;;;;;;110538;1274;22978;-79
2023/07/12 13:55:44;;;;;;;6.60;3.30;;;;;;;;;;110643;1250;22977;-79
2023/07/12 13:58:11;;;;;;;6.30;2.90;;;;;;;;;;110654;1273;22384;-78
2023/07/12 14:00:38;;;;;;;6.90;2.80;;;;;;;;;;110705;1273;22185;-79
2023/07/12 14:03:06;;;;;;;6.20;3.20;;;;;;;;;;110654;1273;22106;-78
2023/07/12 14:05:33;;;;;;;8.00;3.10;;;;;;;;;;110661;1273;22095;-79
2023/07/12 14:08:00;;;;;;;9.00;3.50;;;;;;;;;;110799;1257;22740;-78
2023/07/12 14:10:28;;;;;;;8.90;3.10;;;;;;;;;;110524;1274;22203;-79
2023/07/12 14:12:55;;;;;;;6.50;3.00;;;;;;;;;;110631;1274;22123;-79
2023/07/12 14:15:23;;;;;;;7.10;2.70;;;;;;;;;;110619;1274;22118;-80
2023/07/12 14:17:51;;;;;;;5.50;2.80;;;;;;;;;;110651;1257;22200;-82
2023/07/12 14:20:19;;;;;;;6.80;2.90;;;;;;;;;;110618;1273;22108;-79
2023/07/12 14:22:47;;;;;;;7.30;2.90;;;;;;;;;;110704;1273;23061;-79
2023/07/12 14:25:20;;;;;;;6.50;2.80;;;;;;;;;;110655;1273;22985;-80
2023/07/12 14:27:48;;;;;;;9.00;2.70;;;;;;;;;;110751;1256;22584;-80
2023/07/12 14:30:17;;;;;;;8.30;3.00;;;;;;;;;;110657;1274;22078;-80
2023/07/12 14:32:48;;;;;;;8.90;3.00;;;;;;;;;;110638;1274;22083;-79
2023/07/12 14:35:18;;;;;;;10.20;3.10;;;;;;;;;;110662;1275;22759;-80
2023/07/12 14:37:45;;;;;;;8.90;3.20;;;;;;;;;;110878;1253;22112;-79
2023/07/12 14:40:13;;;;;;;7.40;2.80;;;;;;;;;;110621;1273;22098;-81
2023/07/12 14:42:40;;;;;;;13.00;4.20;;;;;;;;;;110660;1273;22810;-81
2023/07/12 14:45:17;;;;;;;15.50;4.10;;;;;;;;;;110602;1273;22121;-84